Time;durP1;ratioP1;P1;durP2;ratioP2;P2;SDS_P1;SDS_P2;PMS_P1;PMS_P2;Temp;Humidity;BMP_temperature;BMP_pressure;BME280_temperature;BME280_humidity;BME280_pressure;Samples;Min_cycle;Max_cycle;Signal;HPM_P1;HPM_P2
2022/03/26 00:02:13;;;;;;;32.70;23.05;;;17.10;82.10;;;;;;5086614;29;20135;-29
2022/03/26 00:04:44;;;;;;;40.13;24.83;;;17.10;83.50;;;;;;5086663;29;20048;-28
2022/03/26 00:07:15;;;;;;;37.05;22.55;;;17.10;82.20;;;;;;5086428;29;20099;-30
2022/03/26 00:09:46;;;;;;;33.05;20.00;;;17.10;82.40;;;;;;5086668;29;20081;-28
2022/03/26 00:12:36;;;;;;;34.15;20.95;;;17.10;82.80;;;;;;5086691;29;20123;-29
2022/03/26 00:15:12;;;;;;;33.25;21.95;;;17.00;82.50;;;;;;5086197;29;20140;-28
2022/03/26 00:17:43;;;;;;;28.10;18.35;;;17.00;82.00;;;;;;5085366;29;20095;-28
2022/03/26 00:20:14;;;;;;;30.92;20.10;;;17.00;82.50;;;;;;5086467;29;20447;-27
2022/03/26 00:22:45;;;;;;;28.40;18.55;;;17.00;83.30;;;;;;5086265;29;20104;-27
2022/03/26 00:25:17;;;;;;;26.88;18.23;;;17.00;82.60;;;;;;5086216;29;20063;-28
2022/03/26 00:27:49;;;;;;;23.23;17.42;;;17.00;83.50;;;;;;5086268;29;20072;-30
2022/03/26 00:30:20;;;;;;;23.83;15.95;;;17.00;83.70;;;;;;5085208;29;20076;-28
2022/03/26 00:32:51;;;;;;;21.27;17.20;;;17.00;84.40;;;;;;5086112;29;20107;-28
2022/03/26 00:35:22;;;;;;;20.80;15.23;;;17.10;84.30;;;;;;5086325;29;20083;-30
2022/03/26 00:37:53;;;;;;;18.63;14.95;;;17.00;84.10;;;;;;5088082;29;20482;-29
2022/03/26 00:40:24;;;;;;;19.23;15.45;;;17.00;85.90;;;;;;5089614;29;20063;-28
2022/03/26 00:42:55;;;;;;;20.65;14.73;;;17.10;86.20;;;;;;5089055;29;20056;-30
2022/03/26 00:45:29;;;;;;;17.95;13.23;;;17.00;85.50;;;;;;5089708;29;20063;-28
2022/03/26 00:48:00;;;;;;;17.63;13.55;;;17.00;87.00;;;;;;5089385;29;20198;-28
2022/03/26 00:50:31;;;;;;;17.70;13.35;;;17.00;87.30;;;;;;5089638;29;20522;-29
2022/03/26 00:53:02;;;;;;;17.35;12.93;;;17.00;86.30;;;;;;5089496;29;20123;-28
2022/03/26 00:55:34;;;;;;;16.20;12.95;;;17.00;86.50;;;;;;5088221;29;20046;-29
2022/03/26 00:58:05;;;;;;;16.98;13.00;;;17.00;86.80;;;;;;5088402;29;20513;-28
2022/03/26 01:00:36;;;;;;;17.02;13.25;;;17.00;86.50;;;;;;5056386;29;20052;-30
2022/03/26 01:03:09;;;;;;;17.92;13.68;;;17.00;87.10;;;;;;5089202;29;20067;-29
2022/03/26 01:05:40;;;;;;;16.95;12.98;;;17.00;88.60;;;;;;5072472;29;20052;-28
2022/03/26 01:08:11;;;;;;;18.83;14.90;;;17.00;87.60;;;;;;5088936;29;20401;-29
2022/03/26 01:10:44;;;;;;;19.23;14.32;;;17.00;87.30;;;;;;5089573;29;20455;-28
2022/03/26 01:13:15;;;;;;;17.60;13.73;;;17.00;87.80;;;;;;5089304;29;20052;-29
2022/03/26 01:15:46;;;;;;;18.75;13.55;;;17.00;86.70;;;;;;5088251;29;20051;-28
2022/03/26 01:18:17;;;;;;;18.20;12.98;;;17.00;87.60;;;;;;5089639;29;20048;-27
2022/03/26 01:20:49;;;;;;;18.27;13.90;;;17.00;87.60;;;;;;5087860;29;20092;-28
2022/03/26 01:23:20;;;;;;;19.17;14.88;;;17.00;87.70;;;;;;5088640;29;20553;-28
2022/03/26 01:25:51;;;;;;;19.95;15.88;;;17.00;87.80;;;;;;5087903;29;20079;-29
2022/03/26 01:28:22;;;;;;;23.52;17.63;;;17.00;87.50;;;;;;5089306;29;20071;-28
2022/03/26 01:30:53;;;;;;;28.92;20.45;;;17.00;87.80;;;;;;5088875;29;20549;-28
2022/03/26 01:33:25;;;;;;;32.65;21.52;;;17.00;88.40;;;;;;5089495;29;20394;-27
2022/03/26 01:35:56;;;;;;;29.50;19.45;;;17.00;89.60;;;;;;5088576;29;20080;-28
2022/03/26 01:38:27;;;;;;;26.95;19.35;;;17.00;87.80;;;;;;5089056;29;20075;-28
2022/03/26 01:40:58;;;;;;;24.02;18.85;;;17.00;88.60;;;;;;5088859;29;20053;-30
2022/03/26 01:43:29;;;;;;;22.48;17.05;;;17.00;88.80;;;;;;5088944;29;20374;-28
2022/03/26 01:46:00;;;;;;;19.70;15.15;;;17.00;89.10;;;;;;5089032;29;20048;-28
2022/03/26 01:48:31;;;;;;;18.65;15.32;;;17.00;90.80;;;;;;5088408;29;20052;-29
2022/03/26 01:51:14;;;;;;;17.50;14.45;;;17.00;90.00;;;;;;5088612;29;20171;-29
2022/03/26 01:53:47;;;;;;;17.30;13.50;;;17.00;91.30;;;;;;5087353;29;20040;-28
2022/03/26 01:56:18;;;;;;;;;;;17.00;91.20;;;;;;5088244;29;20440;-28
2022/03/26 01:58:49;;;;;;;18.80;13.80;;;17.00;90.50;;;;;;5088552;29;20393;-30
2022/03/26 02:01:20;;;;;;;16.27;13.00;;;17.00;91.10;;;;;;5088394;29;20087;-30
2022/03/26 02:03:52;;;;;;;17.58;12.93;;;17.00;91.20;;;;;;5088372;29;20430;-28
2022/03/26 02:06:25;;;;;;;18.20;13.35;;;16.90;92.20;;;;;;5088334;29;20096;-30
2022/03/26 02:08:55;;;;;;;14.10;11.18;;;16.90;90.50;;;;;;5088174;29;20434;-30
2022/03/26 02:11:27;;;;;;;16.90;12.82;;;16.90;91.60;;;;;;5086883;29;20095;-28
2022/03/26 02:13:58;;;;;;;18.60;13.25;;;17.00;91.10;;;;;;5086828;29;20056;-28
2022/03/26 02:16:33;;;;;;;17.42;12.85;;;16.90;91.80;;;;;;5087815;29;20486;-28
2022/03/26 02:19:05;;;;;;;15.32;12.27;;;16.90;91.40;;;;;;5087942;29;20062;-28
2022/03/26 02:21:42;;;;;;;17.77;11.85;;;16.90;91.30;;;;;;5086914;29;20497;-29
2022/03/26 02:24:13;;;;;;;16.05;12.27;;;16.90;91.40;;;;;;5088040;29;20375;-28
2022/03/26 02:26:45;;;;;;;17.52;12.23;;;16.90;91.40;;;;;;5085934;29;20207;-28
2022/03/26 02:29:16;;;;;;;15.80;11.73;;;16.90;91.80;;;;;;5086766;29;20178;-28
2022/03/26 02:31:49;;;;;;;19.65;12.55;;;16.90;91.90;;;;;;5087638;29;20058;-29
2022/03/26 02:34:21;;;;;;;16.15;12.73;;;16.90;91.80;;;;;;5087533;29;20466;-28
2022/03/26 02:36:56;;;;;;;16.45;12.60;;;16.90;92.40;;;;;;5087757;29;20044;-29
2022/03/26 02:39:27;;;;;;;15.07;12.73;;;16.90;92.30;;;;;;5086790;29;20048;-30
2022/03/26 02:41:58;;;;;;;15.73;12.48;;;16.90;91.90;;;;;;5085544;29;20498;-29
2022/03/26 02:44:29;;;;;;;18.80;13.90;;;16.90;92.50;;;;;;5085022;29;20107;-28
2022/03/26 02:47:00;;;;;;;17.75;13.40;;;16.90;93.30;;;;;;5070714;29;20074;-28
2022/03/26 02:49:31;;;;;;;18.42;13.15;;;16.80;92.40;;;;;;5070322;29;20071;-28
2022/03/26 02:52:02;;;;;;;18.08;13.63;;;16.90;92.10;;;;;;5087572;29;20048;-28
2022/03/26 02:54:35;;;;;;;16.20;12.73;;;16.90;92.40;;;;;;5087598;29;20076;-29
2022/03/26 02:57:06;;;;;;;15.57;13.13;;;16.90;92.70;;;;;;5086655;29;20051;-29
2022/03/26 02:59:37;;;;;;;19.75;13.68;;;16.90;92.40;;;;;;5085530;29;20500;-29
2022/03/26 03:02:09;;;;;;;17.35;13.45;;;16.90;93.20;;;;;;5085932;29;20393;-29
2022/03/26 03:04:40;;;;;;;17.83;13.65;;;16.80;94.80;;;;;;5086653;29;20048;-29
2022/03/26 03:07:11;;;;;;;17.27;12.80;;;16.90;93.00;;;;;;5085891;29;20507;-28
2022/03/26 03:09:42;;;;;;;15.85;12.75;;;16.80;92.80;;;;;;5087501;29;20052;-29
2022/03/26 03:12:13;;;;;;;17.52;13.48;;;16.90;95.70;;;;;;5086914;29;20051;-30
2022/03/26 03:14:44;;;;;;;18.58;13.30;;;16.80;93.50;;;;;;5087263;29;20048;-28
2022/03/26 03:17:16;;;;;;;17.85;13.43;;;16.80;93.00;;;;;;5086409;29;20055;-30
2022/03/26 03:19:47;;;;;;;17.85;13.98;;;16.80;93.20;;;;;;5086968;29;20052;-28
2022/03/26 03:22:18;;;;;;;16.92;13.02;;;16.80;93.50;;;;;;5086372;29;20570;-28
2022/03/26 03:24:49;;;;;;;22.63;17.50;;;16.80;92.70;;;;;;5086938;29;20126;-28
2022/03/26 03:27:21;;;;;;;26.30;20.27;;;16.90;95.00;;;;;;5086880;29;20067;-28
2022/03/26 03:29:52;;;;;;;24.23;17.87;;;16.80;93.70;;;;;;5086243;29;20434;-29
2022/03/26 03:32:23;;;;;;;22.00;16.77;;;16.80;93.00;;;;;;5086847;29;20048;-28
2022/03/26 03:34:54;;;;;;;18.25;14.95;;;16.80;93.30;;;;;;5086140;29;20048;-29
2022/03/26 03:37:26;;;;;;;16.77;13.40;;;16.80;93.40;;;;;;5085958;29;20587;-28
2022/03/26 03:39:56;;;;;;;17.60;14.02;;;16.80;93.80;;;;;;5085254;29;20051;-28
2022/03/26 03:42:27;;;;;;;20.00;15.40;;;16.90;94.70;;;;;;5086699;29;20078;-30
2022/03/26 03:44:58;;;;;;;20.98;15.85;;;16.80;93.90;;;;;;5086766;29;20131;-30
2022/03/26 03:47:29;;;;;;;20.55;17.35;;;16.80;93.80;;;;;;5086577;29;20051;-28
2022/03/26 03:50:00;;;;;;;22.98;17.40;;;16.80;94.50;;;;;;5086665;29;20478;-28
2022/03/26 03:52:31;;;;;;;22.00;17.65;;;16.80;94.60;;;;;;5086745;29;20071;-28
2022/03/26 03:55:03;;;;;;;22.23;18.73;;;16.80;93.90;;;;;;5086718;29;20075;-28
2022/03/26 03:57:34;;;;;;;22.90;18.73;;;16.80;94.00;;;;;;5086909;29;20402;-29
2022/03/26 04:00:06;;;;;;;24.05;19.27;;;16.80;94.50;;;;;;5085564;29;20052;-28
2022/03/26 04:02:37;;;;;;;20.80;18.08;;;16.90;94.90;;;;;;5087004;29;20048;-29
2022/03/26 04:05:13;;;;;;;20.92;16.90;;;16.80;96.50;;;;;;5085954;29;20081;-28
2022/03/26 04:07:44;;;;;;;17.83;15.25;;;16.80;94.90;;;;;;5086576;29;20052;-28
2022/03/26 04:10:15;;;;;;;18.80;15.02;;;16.80;94.60;;;;;;5086720;29;20055;-28
2022/03/26 04:12:46;;;;;;;20.13;16.77;;;16.80;96.40;;;;;;5090230;29;20075;-28
2022/03/26 04:15:17;;;;;;;23.60;19.25;;;16.80;94.60;;;;;;5089665;29;20090;-29
2022/03/26 04:17:51;;;;;;;25.63;20.30;;;16.80;96.00;;;;;;5090225;29;20453;-28
2022/03/26 04:20:23;;;;;;;23.48;19.73;;;16.80;96.60;;;;;;5090056;29;20518;-28
2022/03/26 04:22:54;;;;;;;22.20;18.75;;;16.80;95.70;;;;;;5090408;29;20139;-28
2022/03/26 04:25:25;;;;;;;22.77;18.95;;;16.80;95.50;;;;;;5090137;29;20630;-29
2022/03/26 04:27:56;;;;;;;20.20;17.65;;;16.80;95.80;;;;;;5073301;29;20052;-28
2022/03/26 04:30:27;;;;;;;19.48;15.48;;;16.80;95.60;;;;;;5090166;29;20501;-28
2022/03/26 04:32:58;;;;;;;18.52;15.68;;;16.80;95.00;;;;;;5088816;29;20052;-28
2022/03/26 04:35:31;;;;;;;17.13;13.73;;;16.80;96.60;;;;;;5088812;29;20450;-28
2022/03/26 04:38:02;;;;;;;18.92;13.68;;;16.80;98.10;;;;;;5090481;29;20055;-30
2022/03/26 04:40:33;;;;;;;17.55;14.10;;;16.80;90.90;;;;;;5090121;29;20410;-28
2022/03/26 04:43:06;;;;;;;17.20;13.90;;;16.80;83.40;;;;;;5089396;29;20545;-28
2022/03/26 04:45:37;;;;;;;15.10;13.07;;;16.80;81.90;;;;;;5088386;29;20049;-30
2022/03/26 04:48:08;;;;;;;17.65;13.85;;;16.80;81.30;;;;;;5089823;29;20071;-29
2022/03/26 04:50:39;;;;;;;18.15;13.55;;;16.80;81.00;;;;;;5089994;29;20498;-30
2022/03/26 04:53:10;;;;;;;17.30;13.60;;;16.80;80.70;;;;;;5089197;29;20048;-28
2022/03/26 04:55:41;;;;;;;16.33;13.35;;;16.80;80.50;;;;;;5089676;29;20055;-29
2022/03/26 04:58:12;;;;;;;18.75;13.82;;;16.90;80.30;;;;;;5089036;29;20050;-28
2022/03/26 05:00:43;;;;;;;19.00;14.52;;;16.90;80.30;;;;;;5089284;29;20048;-28
2022/03/26 05:03:14;;;;;;;18.45;14.32;;;16.80;80.10;;;;;;5089253;29;20095;-29
2022/03/26 05:05:45;;;;;;;16.75;13.45;;;16.90;80.20;;;;;;5089381;29;20438;-28
2022/03/26 05:08:16;;;;;;;16.75;13.32;;;16.90;80.50;;;;;;5088854;29;20056;-29
2022/03/26 05:10:47;;;;;;;18.67;13.18;;;16.80;86.70;;;;;;5088244;29;20397;-28
2022/03/26 05:13:18;;;;;;;17.55;13.93;;;16.90;85.40;;;;;;5088249;29;20466;-28
2022/03/26 05:15:49;;;;;;;15.07;12.20;;;16.90;89.80;;;;;;5086774;29;20059;-29
2022/03/26 05:18:20;;;;;;;17.20;12.70;;;17.00;81.20;;;;;;5080738;29;20451;-30
2022/03/26 05:20:51;;;;;;;18.00;13.15;;;16.90;80.50;;;;;;5086794;29;20083;-28
2022/03/26 05:23:26;;;;;;;14.73;12.00;;;17.00;80.50;;;;;;5085594;29;20052;-29
2022/03/26 05:25:56;;;;;;;15.75;12.10;;;17.00;80.50;;;;;;5087171;29;20130;-28
2022/03/26 05:28:28;;;;;;;14.18;11.88;;;17.00;81.10;;;;;;5086681;29;20068;-28
2022/03/26 05:30:59;;;;;;;16.60;12.50;;;17.00;82.80;;;;;;5085815;29;20055;-30
2022/03/26 05:33:30;;;;;;;16.33;12.50;;;17.00;84.20;;;;;;5086674;29;20060;-28
2022/03/26 05:36:01;;;;;;;17.75;13.63;;;17.00;87.50;;;;;;5086569;29;20414;-28
2022/03/26 05:38:32;;;;;;;14.85;12.02;;;17.00;89.90;;;;;;5086757;29;20549;-27
2022/03/26 05:41:04;;;;;;;17.17;13.00;;;17.00;87.60;;;;;;5086524;29;20067;-28
2022/03/26 05:43:35;;;;;;;13.57;11.73;;;17.00;90.00;;;;;;5086320;29;20479;-28
2022/03/26 05:46:06;;;;;;;14.68;11.38;;;17.00;92.50;;;;;;5086347;29;20176;-29
2022/03/26 05:48:40;;;;;;;16.63;12.93;;;17.00;89.10;;;;;;5086331;29;20048;-28
2022/03/26 05:51:12;;;;;;;14.23;11.55;;;17.00;86.70;;;;;;5086494;29;20048;-27
2022/03/26 05:53:44;;;;;;;16.02;11.43;;;17.00;84.90;;;;;;5086337;29;20048;-29
2022/03/26 05:56:15;;;;;;;14.30;11.45;;;17.00;83.80;;;;;;5086079;29;20513;-29
2022/03/26 05:58:46;;;;;;;14.80;11.77;;;17.00;84.50;;;;;;5086221;29;20129;-29
2022/03/26 06:01:17;;;;;;;13.60;10.90;;;17.00;82.70;;;;;;5086179;29;20131;-28
2022/03/26 06:03:48;;;;;;;13.35;11.55;;;17.00;83.80;;;;;;5086234;29;20048;-29
2022/03/26 06:06:19;;;;;;;14.52;11.13;;;17.00;82.90;;;;;;5085788;29;20095;-28
2022/03/26 06:08:50;;;;;;;13.70;11.70;;;17.00;84.90;;;;;;5085949;29;20120;-29
2022/03/26 06:11:23;;;;;;;13.25;10.77;;;17.00;83.60;;;;;;5085763;29;20052;-27
2022/03/26 06:13:57;;;;;;;13.13;10.32;;;17.00;83.00;;;;;;5085867;29;20047;-30
2022/03/26 06:16:28;;;;;;;12.60;10.68;;;17.00;90.60;;;;;;5084557;29;20044;-29
2022/03/26 06:19:00;;;;;;;15.15;12.70;;;17.00;87.00;;;;;;5085608;29;20088;-28
2022/03/26 06:21:31;;;;;;;14.60;11.13;;;17.00;92.40;;;;;;5085357;29;20458;-29
2022/03/26 06:24:03;;;;;;;13.70;11.13;;;17.00;86.10;;;;;;5085378;29;20504;-27
2022/03/26 06:26:36;;;;;;;12.30;9.93;;;17.00;84.10;;;;;;5084783;29;20051;-27
2022/03/26 06:29:07;;;;;;;14.85;11.75;;;17.00;84.70;;;;;;5068759;29;20181;-28
2022/03/26 06:31:38;;;;;;;15.48;11.40;;;17.00;83.40;;;;;;5085572;29;20127;-30
2022/03/26 06:34:09;;;;;;;15.35;11.95;;;17.00;84.70;;;;;;5085054;29;20167;-28
2022/03/26 06:36:40;;;;;;;14.80;11.43;;;17.00;83.60;;;;;;5085546;29;20136;-30
2022/03/26 06:39:11;;;;;;;13.48;10.98;;;17.00;85.00;;;;;;5084182;29;20512;-29
2022/03/26 06:41:44;;;;;;;15.00;11.90;;;17.10;87.40;;;;;;5085690;29;20044;-28
2022/03/26 06:44:15;;;;;;;12.85;10.80;;;17.10;83.20;;;;;;5085309;29;20040;-30
2022/03/26 06:46:47;;;;;;;13.60;10.40;;;17.10;83.30;;;;;;5085218;29;20048;-29
2022/03/26 06:49:18;;;;;;;14.27;11.48;;;17.10;83.30;;;;;;5084283;29;20044;-29
2022/03/26 06:51:49;;;;;;;14.23;10.88;;;17.20;82.60;;;;;;5085224;29;20058;-29
2022/03/26 06:54:20;;;;;;;13.93;10.85;;;17.20;90.30;;;;;;5085315;29;20068;-29
2022/03/26 06:56:51;;;;;;;13.68;10.77;;;17.30;92.20;;;;;;5085427;29;20044;-30
2022/03/26 06:59:23;;;;;;;12.88;10.48;;;17.20;87.20;;;;;;5087122;29;20044;-29
2022/03/26 07:01:54;;;;;;;11.80;9.60;;;17.30;93.00;;;;;;5087303;29;20063;-29
2022/03/26 07:04:25;;;;;;;11.45;9.82;;;17.40;92.60;;;;;;5086511;29;20103;-30
2022/03/26 07:06:58;;;;;;;11.97;9.53;;;17.40;91.50;;;;;;5086494;29;20047;-29
2022/03/26 07:09:31;;;;;;;12.20;10.02;;;17.60;92.10;;;;;;5086413;29;20051;-30
2022/03/26 07:12:06;;;;;;;13.38;9.95;;;17.70;93.50;;;;;;5086359;29;20040;-30
2022/03/26 07:14:40;;;;;;;14.02;10.43;;;17.80;93.60;;;;;;5062655;29;20051;-28
2022/03/26 07:17:12;;;;;;;10.90;9.55;;;17.80;93.70;;;;;;5086333;29;20044;-29
2022/03/26 07:19:48;;;;;;;12.30;9.88;;;17.90;92.50;;;;;;5082797;29;20522;-29
2022/03/26 07:22:19;;;;;;;11.68;9.35;;;18.10;92.70;;;;;;5084938;29;20048;-30
2022/03/26 07:24:56;;;;;;;10.07;8.10;;;18.10;92.50;;;;;;5086206;29;20061;-28
2022/03/26 07:27:33;;;;;;;11.30;8.95;;;18.20;92.90;;;;;;5086750;29;20089;-28
2022/03/26 07:30:05;;;;;;;11.65;8.90;;;18.20;95.00;;;;;;5069326;29;20052;-28
2022/03/26 07:32:36;;;;;;;9.48;8.10;;;18.20;91.90;;;;;;5085308;29;20040;-29
2022/03/26 07:35:07;;;;;;;10.13;8.38;;;18.20;92.20;;;;;;5086536;29;20112;-29
2022/03/26 07:37:38;;;;;;;9.18;7.57;;;18.30;92.90;;;;;;5086737;29;20054;-28
2022/03/26 07:40:12;;;;;;;8.88;7.13;;;18.30;90.10;;;;;;5086729;29;20048;-29
2022/03/26 07:42:43;;;;;;;8.85;6.82;;;18.40;93.00;;;;;;5086772;29;20044;-29
2022/03/26 07:45:14;;;;;;;9.30;7.72;;;18.20;90.30;;;;;;5086193;29;20123;-29
2022/03/26 07:47:45;;;;;;;9.27;7.03;;;18.10;89.00;;;;;;5088902;29;20176;-28
2022/03/26 07:50:16;;;;;;;8.75;6.88;;;17.90;87.10;;;;;;5090457;29;20063;-29
2022/03/26 07:52:47;;;;;;;9.95;6.45;;;17.80;85.60;;;;;;5041410;29;20048;-29
2022/03/26 07:55:19;;;;;;;10.52;7.63;;;17.80;90.10;;;;;;5090362;29;20482;-29
2022/03/26 07:57:51;;;;;;;9.17;6.57;;;17.70;88.40;;;;;;5090180;29;20048;-28
2022/03/26 08:00:22;;;;;;;8.00;7.13;;;17.60;88.70;;;;;;5089771;29;20048;-30
2022/03/26 08:02:53;;;;;;;8.17;7.27;;;17.30;87.00;;;;;;5073406;29;20044;-28
2022/03/26 08:05:24;;;;;;;8.67;7.43;;;16.60;88.70;;;;;;5090451;29;20088;-29
2022/03/26 08:07:55;;;;;;;10.00;8.40;;;16.10;90.10;;;;;;5090463;29;20051;-28
2022/03/26 08:10:27;;;;;;;9.10;8.00;;;15.70;90.70;;;;;;5090200;29;20056;-28
2022/03/26 08:12:58;;;;;;;10.13;8.68;;;15.50;91.10;;;;;;5089598;29;20048;-29
2022/03/26 08:15:29;;;;;;;10.37;9.27;;;15.40;91.40;;;;;;5089602;29;20047;-28
2022/03/26 08:18:02;;;;;;;9.73;8.73;;;15.30;91.60;;;;;;5089769;29;20052;-28
2022/03/26 08:20:34;;;;;;;10.83;8.80;;;15.20;91.70;;;;;;5089795;29;20111;-28
2022/03/26 08:23:04;;;;;;;11.17;9.87;;;15.10;91.80;;;;;;5089427;29;20060;-28
2022/03/26 08:28:28;;;;;;;12.07;10.43;;;14.90;91.90;;;;;;5090159;29;20087;-27
2022/03/26 08:30:59;;;;;;;11.37;10.17;;;14.90;92.10;;;;;;5089849;29;20057;-29
2022/03/26 08:33:30;;;;;;;12.37;11.00;;;14.80;92.10;;;;;;5089596;29;20059;-29
2022/03/26 08:36:01;;;;;;;12.63;10.70;;;14.70;92.10;;;;;;5089760;29;20052;-28
2022/03/26 08:38:31;;;;;;;13.00;11.57;;;14.70;92.30;;;;;;5072954;29;20536;-28
2022/03/26 08:41:03;;;;;;;13.63;11.80;;;14.70;92.20;;;;;;5089771;29;20405;-29
2022/03/26 08:43:34;;;;;;;13.07;11.70;;;14.80;92.20;;;;;;5089322;29;20048;-29
2022/03/26 08:46:05;;;;;;;13.17;11.37;;;14.80;92.20;;;;;;5090118;29;20494;-28
2022/03/26 08:48:36;;;;;;;11.87;10.27;;;14.80;92.10;;;;;;5089074;29;20068;-29
2022/03/26 08:51:07;;;;;;;13.23;11.37;;;14.80;92.20;;;;;;5089770;29;20040;-28
2022/03/26 08:53:39;;;;;;;14.67;12.20;;;14.80;92.10;;;;;;5089148;29;20052;-28
2022/03/26 08:56:11;;;;;;;12.93;11.53;;;14.80;92.20;;;;;;5089094;29;20052;-29
2022/03/26 08:58:42;;;;;;;13.93;12.20;;;14.80;92.10;;;;;;5088207;29;20052;-28
2022/03/26 09:01:13;;;;;;;13.03;11.63;;;14.70;92.20;;;;;;5089494;29;20462;-29
2022/03/26 09:03:44;;;;;;;;;;;14.70;92.20;;;;;;5089588;29;20044;-28
2022/03/26 09:06:15;;;;;;;;;;;14.70;92.20;;;;;;5089523;29;20381;-29
2022/03/26 09:08:46;;;;;;;;;;;14.70;92.20;;;;;;5089480;29;19934;-28
2022/03/26 09:11:17;;;;;;;;;;;14.70;92.30;;;;;;5089527;29;19927;-28
2022/03/26 09:13:48;;;;;;;;;;;14.70;92.30;;;;;;5089560;29;19927;-28
2022/03/26 09:16:19;;;;;;;;;;;14.70;92.30;;;;;;5089224;29;19947;-27
2022/03/26 09:18:50;;;;;;;;;;;14.70;92.40;;;;;;5089437;29;19975;-28
2022/03/26 09:21:21;;;;;;;;;;;14.70;92.40;;;;;;5071544;29;19955;-27
2022/03/26 09:23:52;;;;;;;;;;;14.70;92.50;;;;;;5087908;29;20029;-28
2022/03/26 09:26:24;;;;;;;15.43;12.83;;;14.70;92.30;;;;;;5088687;29;19962;-30
2022/03/26 09:29:00;;;;;;;15.30;12.47;;;14.90;92.10;;;;;;5089249;29;20052;-28
2022/03/26 09:31:32;;;;;;;14.47;11.10;;;15.10;91.90;;;;;;5088720;29;20043;-27
2022/03/26 09:34:03;;;;;;;11.57;9.20;;;15.30;91.20;;;;;;5071274;29;20055;-28
2022/03/26 09:36:34;;;;;;;12.63;10.30;;;15.50;90.90;;;;;;5088735;29;20070;-29
2022/03/26 09:39:05;;;;;;;13.57;10.87;;;15.70;91.80;;;;;;5088571;29;20048;-29
2022/03/26 09:41:36;;;;;;;12.73;10.30;;;15.80;91.60;;;;;;5088447;29;20119;-30
2022/03/26 09:44:11;;;;;;;12.30;10.17;;;15.80;91.20;;;;;;5088597;29;20143;-29
2022/03/26 09:46:45;;;;;;;12.67;10.70;;;15.90;91.20;;;;;;5087832;29;20099;-28
2022/03/26 09:49:16;;;;;;;11.93;10.30;;;15.90;91.70;;;;;;5086865;29;20052;-28
2022/03/26 09:51:57;;;;;;;11.80;9.47;;;16.00;91.30;;;;;;5086404;29;20168;-30
2022/03/26 09:54:28;;;;;;;13.33;10.67;;;16.00;91.20;;;;;;5088313;29;20055;-28
2022/03/26 09:57:04;;;;;;;11.50;10.00;;;16.10;92.20;;;;;;5070563;29;20052;-29
2022/03/26 09:59:35;;;;;;;12.80;10.63;;;16.10;91.20;;;;;;5086244;29;20115;-28
2022/03/26 10:02:06;;;;;;;11.87;10.00;;;16.10;90.50;;;;;;5086195;29;20123;-30
2022/03/26 10:04:38;;;;;;;11.87;9.80;;;16.10;90.30;;;;;;5087439;29;20095;-28
2022/03/26 10:07:10;;;;;;;12.52;10.23;;;16.20;90.10;;;;;;5086641;29;20497;-29
2022/03/26 10:09:44;;;;;;;13.32;10.23;;;16.20;90.30;;;;;;5087062;29;20499;-29
2022/03/26 10:12:18;;;;;;;10.75;9.40;;;16.20;90.50;;;;;;5086106;29;20111;-29
2022/03/26 10:15:00;;;;;;;10.87;9.03;;;16.20;89.90;;;;;;5087099;29;20048;-30
2022/03/26 10:17:34;;;;;;;10.57;9.02;;;16.20;89.70;;;;;;5086435;29;20062;-30
2022/03/26 10:20:10;;;;;;;10.63;8.70;;;16.30;89.50;;;;;;5086714;29;20139;-29
2022/03/26 10:22:50;;;;;;;10.18;8.77;;;16.40;91.30;;;;;;5087098;29;20047;-28
2022/03/26 10:25:22;;;;;;;9.82;8.68;;;16.40;91.50;;;;;;5087922;29;20059;-29
2022/03/26 10:27:57;;;;;;;10.90;8.93;;;16.60;93.20;;;;;;5088027;29;20197;-28
2022/03/26 10:33:23;;;;;;;13.80;9.82;;;16.70;92.80;;;;;;5087169;29;20076;-28
2022/03/26 10:36:01;;;;;;;11.75;9.32;;;16.80;91.50;;;;;;5087789;29;20123;-28
2022/03/26 10:38:40;;;;;;;11.13;9.15;;;16.90;93.50;;;;;;5088121;29;20151;-29
2022/03/26 10:41:10;;;;;;;12.38;7.40;;;16.90;94.40;;;;;;5086636;29;20044;-29
2022/03/26 10:43:42;;;;;;;9.93;8.43;;;17.00;91.20;;;;;;5086392;29;20052;-30
2022/03/26 10:46:22;;;;;;;10.35;8.80;;;17.30;93.90;;;;;;5087690;29;20091;-28
2022/03/26 10:49:04;;;;;;;10.35;9.02;;;17.30;95.20;;;;;;5086829;29;20102;-28
2022/03/26 10:51:38;;;;;;;9.40;7.78;;;17.10;95.30;;;;;;5086799;29;20490;-29
2022/03/26 10:54:11;;;;;;;8.32;7.18;;;17.10;92.60;;;;;;5086094;29;20060;-28
2022/03/26 10:56:42;;;;;;;9.60;8.05;;;17.00;93.80;;;;;;5086369;29;20402;-29
2022/03/26 10:59:13;;;;;;;11.02;9.75;;;17.00;93.30;;;;;;5087089;29;20056;-28
2022/03/26 11:01:43;;;;;;;9.80;8.73;;;17.00;92.80;;;;;;5087638;29;20052;-29
2022/03/26 11:04:15;;;;;;;9.40;7.75;;;17.00;95.10;;;;;;5086537;29;20044;-28
2022/03/26 11:06:47;;;;;;;7.40;6.32;;;16.90;94.50;;;;;;5086257;29;20405;-30
2022/03/26 11:09:18;;;;;;;8.30;7.40;;;16.90;91.90;;;;;;5087057;29;20490;-28
2022/03/26 11:11:49;;;;;;;9.10;7.82;;;16.90;93.50;;;;;;5085391;29;20080;-29
2022/03/26 11:14:24;;;;;;;8.30;7.28;;;16.90;93.50;;;;;;5070072;29;20068;-28
2022/03/26 11:17:23;;;;;;;8.48;7.22;;;16.90;93.70;;;;;;5086076;29;20052;-29
2022/03/26 11:20:06;;;;;;;9.68;7.38;;;16.90;94.00;;;;;;5087113;29;20067;-29
2022/03/26 11:23:22;;;;;;;8.57;7.43;;;16.90;95.60;;;;;;5086790;29;20123;-29
2022/03/26 11:26:12;;;;;;;8.88;7.28;;;16.80;95.80;;;;;;5026906;29;20061;-28
2022/03/26 11:29:04;;;;;;;8.85;7.00;;;16.80;93.40;;;;;;5011424;29;20170;-29
2022/03/26 11:32:00;;;;;;;9.00;7.60;;;16.80;93.90;;;;;;5027107;29;20149;-29
2022/03/26 11:34:33;;;;;;;8.25;7.10;;;16.80;93.50;;;;;;4999157;29;20053;-29
2022/03/26 11:37:19;;;;;;;9.57;7.63;;;16.80;95.80;;;;;;5011341;29;20551;-28
2022/03/26 11:39:56;;;;;;;8.52;7.15;;;16.80;94.20;;;;;;5011850;29;20061;-29
2022/03/26 11:42:39;;;;;;;10.20;8.50;;;16.80;95.10;;;;;;5012126;29;20103;-29
2022/03/26 11:51:23;;;;;;;9.40;6.57;;;16.70;93.90;;;;;;4970304;29;20066;-29
2022/03/26 11:54:12;;;;;;;8.23;5.90;;;16.70;94.00;;;;;;4969778;29;20055;-29
2022/03/26 11:56:44;;;;;;;9.70;6.78;;;16.70;94.00;;;;;;4970078;29;20062;-28
2022/03/26 11:59:19;;;;;;;8.40;6.22;;;16.70;96.50;;;;;;4969933;29;20496;-29
2022/03/26 12:01:50;;;;;;;8.97;6.73;;;16.70;95.60;;;;;;4976366;29;20113;-28
2022/03/26 12:04:26;;;;;;;7.60;6.72;;;16.70;97.80;;;;;;5007733;29;20087;-29
2022/03/26 12:07:00;;;;;;;7.80;6.80;;;16.70;96.50;;;;;;5007706;29;20061;-30
2022/03/26 12:09:35;;;;;;;7.65;6.07;;;16.70;96.50;;;;;;5007551;29;20061;-28
2022/03/26 12:12:15;;;;;;;8.20;6.30;;;16.60;96.20;;;;;;5008012;29;20050;-28
2022/03/26 12:15:05;;;;;;;7.93;6.47;;;16.60;94.80;;;;;;5007423;29;20087;-27
2022/03/26 12:17:45;;;;;;;7.65;6.15;;;16.60;93.80;;;;;;5007326;29;20182;-29
2022/03/26 12:20:26;;;;;;;7.50;6.28;;;16.70;94.40;;;;;;5007036;29;20103;-28
2022/03/26 12:23:11;;;;;;;7.40;5.72;;;16.70;96.00;;;;;;5067061;29;20405;-28
2022/03/26 12:25:51;;;;;;;7.95;6.78;;;16.70;92.90;;;;;;5085217;29;20044;-29
2022/03/26 12:28:24;;;;;;;8.43;6.70;;;16.90;93.60;;;;;;5086444;29;20055;-29
2022/03/26 12:31:00;;;;;;;9.40;6.78;;;16.90;96.50;;;;;;5086949;29;20052;-29
2022/03/26 12:33:50;;;;;;;8.20;6.30;;;16.80;94.00;;;;;;5089128;29;20052;-28
2022/03/26 12:36:21;;;;;;;7.25;6.03;;;16.70;93.30;;;;;;5088753;29;20383;-30
2022/03/26 12:38:54;;;;;;;8.27;7.00;;;16.70;91.50;;;;;;5088883;29;20040;-28
2022/03/26 12:41:25;;;;;;;;;;;16.70;91.60;;;;;;5073482;29;20048;-30
2022/03/26 12:43:57;;;;;;;33.23;24.57;;;16.60;90.70;;;;;;5089937;29;19923;-28
2022/03/26 12:46:33;;;;;;;14.70;11.55;;;16.30;90.70;;;;;;5089909;29;20103;-28
2022/03/26 12:49:16;;;;;;;19.00;16.47;;;15.80;91.30;;;;;;5089920;29;20064;-29
2022/03/26 12:51:48;;;;;;;10.40;9.27;;;15.40;92.10;;;;;;5088287;29;20104;-29
2022/03/26 12:54:19;;;;;;;10.33;9.07;;;15.10;92.40;;;;;;5090196;29;20542;-28
2022/03/26 12:56:51;;;;;;;11.73;8.97;;;14.90;92.80;;;;;;5089172;29;20139;-29
2022/03/26 12:59:22;;;;;;;9.77;8.17;;;14.70;93.00;;;;;;5089041;29;20048;-29
2022/03/26 13:02:01;;;;;;;11.73;9.27;;;14.60;93.20;;;;;;5089484;29;20406;-28
2022/03/26 13:04:36;;;;;;;9.23;7.83;;;14.60;93.40;;;;;;5088647;29;20095;-29
2022/03/26 13:07:07;;;;;;;9.87;8.33;;;14.50;93.40;;;;;;5090247;29;20200;-29
2022/03/26 13:09:38;;;;;;;9.93;8.73;;;14.50;93.50;;;;;;5072766;29;20143;-28
2022/03/26 13:12:22;;;;;;;9.37;8.20;;;14.50;93.70;;;;;;5089312;29;20052;-28
2022/03/26 13:14:53;;;;;;;8.55;7.68;;;14.50;93.70;;;;;;5048665;29;20173;-28
2022/03/26 13:17:24;;;;;;;9.27;8.07;;;14.40;93.80;;;;;;5047123;29;20082;-28